sensor_id;sensor_type;location;lat;lon;timestamp;pressure;altitude;pressure_sealevel;temperature;humidity
53526;BME280;40551;50.478;19.378;2023-02-10T00:00:06;99549.33;;;-3.76;65.33
53526;BME280;40551;50.478;19.378;2023-02-10T00:02:58;99550.67;;;-3.75;65.74
53526;BME280;40551;50.478;19.378;2023-02-10T00:05:28;99544.91;;;-3.74;65.78
53526;BME280;40551;50.478;19.378;2023-02-10T00:08:00;99541.88;;;-3.76;65.58
53526;BME280;40551;50.478;19.378;2023-02-10T00:10:30;99526.08;;;-3.72;65.55
53526;BME280;40551;50.478;19.378;2023-02-10T00:13:02;99519.65;;;-3.73;66.05
53526;BME280;40551;50.478;19.378;2023-02-10T00:15:32;99512.52;;;-3.70;66.16
53526;BME280;40551;50.478;19.378;2023-02-10T00:18:04;99508.10;;;-3.71;66.32
53526;BME280;40551;50.478;19.378;2023-02-10T00:20:35;99510.13;;;-3.67;65.79
53526;BME280;40551;50.478;19.378;2023-02-10T00:23:05;99518.25;;;-3.64;66.12
53526;BME280;40551;50.478;19.378;2023-02-10T00:25:38;99522.16;;;-3.65;66.32
53526;BME280;40551;50.478;19.378;2023-02-10T00:28:09;99529.77;;;-3.61;66.27
53526;BME280;40551;50.478;19.378;2023-02-10T00:30:41;99529.24;;;-3.57;66.32
53526;BME280;40551;50.478;19.378;2023-02-10T00:33:13;99531.27;;;-3.53;66.22
53526;BME280;40551;50.478;19.378;2023-02-10T00:35:43;99527.36;;;-3.50;66.20
53526;BME280;40551;50.478;19.378;2023-02-10T00:38:17;99532.80;;;-3.51;66.35
53526;BME280;40551;50.478;19.378;2023-02-10T00:40:49;99529.05;;;-3.50;66.42
53526;BME280;40551;50.478;19.378;2023-02-10T00:43:21;99528.02;;;-3.49;66.61
53526;BME280;40551;50.478;19.378;2023-02-10T00:45:51;99528.18;;;-3.48;66.40
53526;BME280;40551;50.478;19.378;2023-02-10T00:48:24;99530.91;;;-3.50;66.51
53526;BME280;40551;50.478;19.378;2023-02-10T00:50:56;99533.80;;;-3.48;66.60
53526;BME280;40551;50.478;19.378;2023-02-10T00:53:26;99535.48;;;-3.47;66.63
53526;BME280;40551;50.478;19.378;2023-02-10T00:55:58;99537.69;;;-3.49;66.60
53526;BME280;40551;50.478;19.378;2023-02-10T00:58:28;99534.98;;;-3.48;66.79
53526;BME280;40551;50.478;19.378;2023-02-10T01:01:00;99531.93;;;-3.50;66.84
53526;BME280;40551;50.478;19.378;2023-02-10T01:03:30;99531.59;;;-3.49;66.75
53526;BME280;40551;50.478;19.378;2023-02-10T01:06:02;99520.92;;;-3.51;66.82
53526;BME280;40551;50.478;19.378;2023-02-10T01:08:35;99524.30;;;-3.49;66.73
53526;BME280;40551;50.478;19.378;2023-02-10T01:11:09;99521.74;;;-3.47;66.95
53526;BME280;40551;50.478;19.378;2023-02-10T01:13:42;99520.89;;;-3.46;67.12
53526;BME280;40551;50.478;19.378;2023-02-10T01:16:15;99527.34;;;-3.44;67.03
53526;BME280;40551;50.478;19.378;2023-02-10T01:18:47;99526.46;;;-3.42;66.99
53526;BME280;40551;50.478;19.378;2023-02-10T01:21:18;99522.03;;;-3.38;67.14
53526;BME280;40551;50.478;19.378;2023-02-10T01:23:52;99521.02;;;-3.39;67.15
53526;BME280;40551;50.478;19.378;2023-02-10T01:26:23;99522.03;;;-3.36;67.06
53526;BME280;40551;50.478;19.378;2023-02-10T01:28:54;99513.86;;;-3.31;67.10
53526;BME280;40551;50.478;19.378;2023-02-10T01:31:25;99508.62;;;-3.32;67.19
53526;BME280;40551;50.478;19.378;2023-02-10T01:33:57;99497.39;;;-3.28;67.37
53526;BME280;40551;50.478;19.378;2023-02-10T01:36:27;99490.07;;;-3.24;67.34
53526;BME280;40551;50.478;19.378;2023-02-10T01:39:00;99497.02;;;-3.25;67.39
53526;BME280;40551;50.478;19.378;2023-02-10T01:41:34;99500.75;;;-3.22;67.28
53526;BME280;40551;50.478;19.378;2023-02-10T01:44:05;99501.07;;;-3.19;67.25
53526;BME280;40551;50.478;19.378;2023-02-10T01:46:37;99505.84;;;-3.21;67.34
53526;BME280;40551;50.478;19.378;2023-02-10T01:49:12;99498.69;;;-3.19;67.48
53526;BME280;40551;50.478;19.378;2023-02-10T01:51:50;99493.41;;;-3.16;67.23
53526;BME280;40551;50.478;19.378;2023-02-10T01:54:26;99494.77;;;-3.15;67.29
53526;BME280;40551;50.478;19.378;2023-02-10T01:57:02;99488.82;;;-3.15;67.05
53526;BME280;40551;50.478;19.378;2023-02-10T01:59:36;99487.30;;;-3.13;67.12
53526;BME280;40551;50.478;19.378;2023-02-10T02:02:09;99484.39;;;-3.12;67.10
53526;BME280;40551;50.478;19.378;2023-02-10T02:04:44;99483.05;;;-3.12;67.20
53526;BME280;40551;50.478;19.378;2023-02-10T02:07:20;99488.30;;;-3.12;67.32
53526;BME280;40551;50.478;19.378;2023-02-10T02:09:55;99493.05;;;-3.12;66.95
53526;BME280;40551;50.478;19.378;2023-02-10T02:12:35;99494.59;;;-3.12;67.21
53526;BME280;40551;50.478;19.378;2023-02-10T02:15:17;99476.60;;;-3.14;67.06
53526;BME280;40551;50.478;19.378;2023-02-10T02:17:57;99462.02;;;-3.15;67.25
53526;BME280;40551;50.478;19.378;2023-02-10T02:20:54;99475.58;;;-3.16;67.43
53526;BME280;40551;50.478;19.378;2023-02-10T02:23:46;99470.69;;;-3.17;67.61
53526;BME280;40551;50.478;19.378;2023-02-10T02:26:50;99466.95;;;-3.19;67.07
53526;BME280;40551;50.478;19.378;2023-02-10T02:29:40;99469.00;;;-3.21;67.15
53526;BME280;40551;50.478;19.378;2023-02-10T02:32:19;99464.94;;;-3.23;67.43
53526;BME280;40551;50.478;19.378;2023-02-10T02:34:55;99459.19;;;-3.25;67.12
53526;BME280;40551;50.478;19.378;2023-02-10T02:37:30;99462.27;;;-3.27;67.27
53526;BME280;40551;50.478;19.378;2023-02-10T02:40:03;99453.80;;;-3.30;67.09
53526;BME280;40551;50.478;19.378;2023-02-10T02:42:35;99449.77;;;-3.34;67.44
53526;BME280;40551;50.478;19.378;2023-02-10T02:45:10;99445.02;;;-3.38;67.31
53526;BME280;40551;50.478;19.378;2023-02-10T02:47:51;99444.19;;;-3.40;67.31
53526;BME280;40551;50.478;19.378;2023-02-10T02:50:29;99447.43;;;-3.44;67.12
53526;BME280;40551;50.478;19.378;2023-02-10T02:53:20;99454.91;;;-3.46;67.35
53526;BME280;40551;50.478;19.378;2023-02-10T02:55:58;99454.26;;;-3.49;67.38
53526;BME280;40551;50.478;19.378;2023-02-10T02:58:38;99462.77;;;-3.56;67.43
53526;BME280;40551;50.478;19.378;2023-02-10T03:01:17;99467.19;;;-3.59;67.48
53526;BME280;40551;50.478;19.378;2023-02-10T03:03:53;99465.68;;;-3.62;67.67
53526;BME280;40551;50.478;19.378;2023-02-10T03:06:25;99474.66;;;-3.63;67.68
53526;BME280;40551;50.478;19.378;2023-02-10T03:08:57;99471.45;;;-3.65;67.49
53526;BME280;40551;50.478;19.378;2023-02-10T03:11:29;99470.61;;;-3.67;67.69
53526;BME280;40551;50.478;19.378;2023-02-10T03:14:01;99471.13;;;-3.68;67.64
53526;BME280;40551;50.478;19.378;2023-02-10T03:16:31;99469.63;;;-3.69;67.94
53526;BME280;40551;50.478;19.378;2023-02-10T03:19:02;99464.55;;;-3.74;67.90
53526;BME280;40551;50.478;19.378;2023-02-10T03:21:33;99463.02;;;-3.73;67.67
53526;BME280;40551;50.478;19.378;2023-02-10T03:24:05;99463.55;;;-3.77;67.94
53526;BME280;40551;50.478;19.378;2023-02-10T03:26:39;99469.81;;;-3.78;68.30
53526;BME280;40551;50.478;19.378;2023-02-10T03:29:09;99470.83;;;-3.79;68.10
53526;BME280;40551;50.478;19.378;2023-02-10T03:31:41;99472.88;;;-3.82;68.07
53526;BME280;40551;50.478;19.378;2023-02-10T03:34:13;99467.95;;;-3.82;67.98
53526;BME280;40551;50.478;19.378;2023-02-10T03:36:44;99470.02;;;-3.82;68.10
53526;BME280;40551;50.478;19.378;2023-02-10T03:39:15;99471.52;;;-3.81;67.95
53526;BME280;40551;50.478;19.378;2023-02-10T03:41:46;99470.88;;;-3.87;67.86
53526;BME280;40551;50.478;19.378;2023-02-10T03:44:16;99470.20;;;-3.87;68.00
53526;BME280;40551;50.478;19.378;2023-02-10T03:46:48;99468.85;;;-3.91;68.07
53526;BME280;40551;50.478;19.378;2023-02-10T03:49:18;99468.69;;;-3.92;68.36
53526;BME280;40551;50.478;19.378;2023-02-10T03:51:50;99472.77;;;-3.96;68.36
53526;BME280;40551;50.478;19.378;2023-02-10T03:54:22;99473.78;;;-3.97;68.32
53526;BME280;40551;50.478;19.378;2023-02-10T03:56:52;99481.41;;;-3.97;68.42
53526;BME280;40551;50.478;19.378;2023-02-10T03:59:24;99485.84;;;-4.01;68.31
53526;BME280;40551;50.478;19.378;2023-02-10T04:01:54;99490.59;;;-4.01;68.28
53526;BME280;40551;50.478;19.378;2023-02-10T04:04:26;99490.07;;;-4.05;68.69
53526;BME280;40551;50.478;19.378;2023-02-10T04:06:57;99491.26;;;-4.05;68.48
53526;BME280;40551;50.478;19.378;2023-02-10T04:09:27;99488.22;;;-4.06;68.43
53526;BME280;40551;50.478;19.378;2023-02-10T04:11:59;99490.42;;;-4.11;68.63
53526;BME280;40551;50.478;19.378;2023-02-10T04:14:29;99490.95;;;-4.11;68.27
53526;BME280;40551;50.478;19.378;2023-02-10T04:17:01;99486.89;;;-4.16;68.69
53526;BME280;40551;50.478;19.378;2023-02-10T04:19:33;99480.13;;;-4.17;68.74
53526;BME280;40551;50.478;19.378;2023-02-10T04:22:03;99484.70;;;-4.18;68.75
53526;BME280;40551;50.478;19.378;2023-02-10T04:24:35;99483.35;;;-4.21;68.95
53526;BME280;40551;50.478;19.378;2023-02-10T04:27:05;99491.14;;;-4.23;68.77
53526;BME280;40551;50.478;19.378;2023-02-10T04:29:37;99491.15;;;-4.27;68.76
53526;BME280;40551;50.478;19.378;2023-02-10T04:32:10;99492.16;;;-4.27;68.82
53526;BME280;40551;50.478;19.378;2023-02-10T04:34:40;99499.11;;;-4.28;68.84
53526;BME280;40551;50.478;19.378;2023-02-10T04:37:12;99502.17;;;-4.33;68.93
53526;BME280;40551;50.478;19.378;2023-02-10T04:39:42;99501.16;;;-4.34;69.00
53526;BME280;40551;50.478;19.378;2023-02-10T04:42:13;99499.63;;;-4.38;69.04
53526;BME280;40551;50.478;19.378;2023-02-10T04:44:44;99491.52;;;-4.39;69.18
53526;BME280;40551;50.478;19.378;2023-02-10T04:47:15;99493.38;;;-4.44;69.20
53526;BME280;40551;50.478;19.378;2023-02-10T04:49:45;99494.89;;;-4.45;69.15
53526;BME280;40551;50.478;19.378;2023-02-10T04:52:17;99491.19;;;-4.50;69.15
53526;BME280;40551;50.478;19.378;2023-02-10T04:54:47;99491.36;;;-4.51;69.19
53526;BME280;40551;50.478;19.378;2023-02-10T04:57:19;99496.60;;;-4.54;69.54
53526;BME280;40551;50.478;19.378;2023-02-10T04:59:49;99499.14;;;-4.54;69.65
53526;BME280;40551;50.478;19.378;2023-02-10T05:02:21;99497.96;;;-4.58;69.29
53526;BME280;40551;50.478;19.378;2023-02-10T05:04:53;99496.44;;;-4.58;69.33
53526;BME280;40551;50.478;19.378;2023-02-10T05:07:23;99496.11;;;-4.59;69.34
53526;BME280;40551;50.478;19.378;2023-02-10T05:09:54;99501.01;;;-4.65;69.48
53526;BME280;40551;50.478;19.378;2023-02-10T05:12:28;99504.39;;;-4.66;69.33
53526;BME280;40551;50.478;19.378;2023-02-10T05:15:00;99503.55;;;-4.67;69.36
53526;BME280;40551;50.478;19.378;2023-02-10T05:17:32;99507.95;;;-4.68;69.20
53526;BME280;40551;50.478;19.378;2023-02-10T05:20:02;99514.22;;;-4.70;69.55
53526;BME280;40551;50.478;19.378;2023-02-10T05:22:37;99510.83;;;-4.74;69.73
53526;BME280;40551;50.478;19.378;2023-02-10T05:25:10;99506.09;;;-4.75;69.61
53526;BME280;40551;50.478;19.378;2023-02-10T05:27:41;99505.92;;;-4.76;69.56
53526;BME280;40551;50.478;19.378;2023-02-10T05:30:12;99508.79;;;-4.78;69.88
53526;BME280;40551;50.478;19.378;2023-02-10T05:32:44;99508.79;;;-4.82;70.01
53526;BME280;40551;50.478;19.378;2023-02-10T05:35:14;99512.52;;;-4.83;70.02
53526;BME280;40551;50.478;19.378;2023-02-10T05:37:46;99515.05;;;-4.87;70.07
53526;BME280;40551;50.478;19.378;2023-02-10T05:40:16;99516.06;;;-4.89;70.20
53526;BME280;40551;50.478;19.378;2023-02-10T05:42:48;99517.42;;;-4.92;70.06
53526;BME280;40551;50.478;19.378;2023-02-10T05:45:20;99524.36;;;-4.92;69.94
53526;BME280;40551;50.478;19.378;2023-02-10T05:47:52;99524.70;;;-4.92;69.98
53526;BME280;40551;50.478;19.378;2023-02-10T05:50:22;99527.58;;;-4.93;69.95
53526;BME280;40551;50.478;19.378;2023-02-10T05:52:54;99527.23;;;-4.96;70.30
53526;BME280;40551;50.478;19.378;2023-02-10T05:55:26;99523.00;;;-4.96;69.79
53526;BME280;40551;50.478;19.378;2023-02-10T05:57:58;99528.75;;;-4.96;70.00
53526;BME280;40551;50.478;19.378;2023-02-10T06:00:30;99528.41;;;-4.95;69.95
53526;BME280;40551;50.478;19.378;2023-02-10T06:03:03;99527.40;;;-4.94;70.04
53526;BME280;40551;50.478;19.378;2023-02-10T06:05:37;99523.67;;;-4.94;70.32
53526;BME280;40551;50.478;19.378;2023-02-10T06:08:09;99524.02;;;-4.94;70.32
53526;BME280;40551;50.478;19.378;2023-02-10T06:10:39;99525.20;;;-4.92;70.18
53526;BME280;40551;50.478;19.378;2023-02-10T06:13:11;99527.90;;;-4.95;70.09
53526;BME280;40551;50.478;19.378;2023-02-10T06:15:44;99530.79;;;-4.94;70.32
53526;BME280;40551;50.478;19.378;2023-02-10T06:18:17;99543.31;;;-4.91;70.13
53526;BME280;40551;50.478;19.378;2023-02-10T06:20:47;99549.57;;;-4.88;70.45
53526;BME280;40551;50.478;19.378;2023-02-10T06:23:21;99553.12;;;-4.89;70.24
53526;BME280;40551;50.478;19.378;2023-02-10T06:25:53;99554.83;;;-4.84;70.22
53526;BME280;40551;50.478;19.378;2023-02-10T06:28:28;99554.50;;;-4.80;70.25
53526;BME280;40551;50.478;19.378;2023-02-10T06:30:59;99555.00;;;-4.76;70.11
53526;BME280;40551;50.478;19.378;2023-02-10T06:33:31;99548.23;;;-4.69;70.41
53526;BME280;40551;50.478;19.378;2023-02-10T06:36:07;99554.51;;;-4.54;70.30
53526;BME280;40551;50.478;19.378;2023-02-10T06:38:39;99552.80;;;-4.31;70.59
53526;BME280;40551;50.478;19.378;2023-02-10T06:41:11;99547.98;;;-3.84;71.09
53526;BME280;40551;50.478;19.378;2023-02-10T06:43:41;99551.31;;;-3.24;71.25
53526;BME280;40551;50.478;19.378;2023-02-10T06:46:13;99548.35;;;-2.80;70.76
53526;BME280;40551;50.478;19.378;2023-02-10T06:48:46;99547.13;;;-2.75;68.97
53526;BME280;40551;50.478;19.378;2023-02-10T06:51:16;99548.03;;;-2.84;67.96
53526;BME280;40551;50.478;19.378;2023-02-10T06:53:47;99558.64;;;-2.99;67.44
53526;BME280;40551;50.478;19.378;2023-02-10T06:56:18;99558.70;;;-3.07;67.14
53526;BME280;40551;50.478;19.378;2023-02-10T06:58:49;99565.39;;;-3.20;67.48
53526;BME280;40551;50.478;19.378;2023-02-10T07:01:19;99568.46;;;-3.23;67.32
53526;BME280;40551;50.478;19.378;2023-02-10T07:03:51;99570.54;;;-3.32;67.48
53526;BME280;40551;50.478;19.378;2023-02-10T07:06:23;99576.64;;;-3.33;67.60
53526;BME280;40551;50.478;19.378;2023-02-10T07:08:53;99572.58;;;-3.33;67.46
53526;BME280;40551;50.478;19.378;2023-02-10T07:11:25;99569.36;;;-3.38;67.63
53526;BME280;40551;50.478;19.378;2023-02-10T07:13:55;99570.71;;;-3.35;67.68
53526;BME280;40551;50.478;19.378;2023-02-10T07:16:27;99571.23;;;-3.35;67.77
53526;BME280;40551;50.478;19.378;2023-02-10T07:19:01;99576.28;;;-3.28;67.57
53526;BME280;40551;50.478;19.378;2023-02-10T07:21:33;99578.13;;;-3.23;67.74
53526;BME280;40551;50.478;19.378;2023-02-10T07:24:05;99578.10;;;-3.18;67.83
53526;BME280;40551;50.478;19.378;2023-02-10T07:26:37;99575.87;;;-3.13;67.48
53526;BME280;40551;50.478;19.378;2023-02-10T07:29:07;99578.56;;;-3.08;67.53
53526;BME280;40551;50.478;19.378;2023-02-10T07:31:39;99577.37;;;-3.07;67.56
53526;BME280;40551;50.478;19.378;2023-02-10T07:34:11;99572.40;;;-2.99;67.58
53526;BME280;40551;50.478;19.378;2023-02-10T07:36:42;99572.88;;;-2.93;67.41
53526;BME280;40551;50.478;19.378;2023-02-10T07:39:14;99566.23;;;-2.86;67.25
53526;BME280;40551;50.478;19.378;2023-02-10T07:41:44;99570.42;;;-2.80;67.17
53526;BME280;40551;50.478;19.378;2023-02-10T07:44:16;99571.07;;;-2.76;67.33
53526;BME280;40551;50.478;19.378;2023-02-10T07:46:48;99572.02;;;-2.66;67.32
53526;BME280;40551;50.478;19.378;2023-02-10T07:49:20;99571.63;;;-2.58;66.85
53526;BME280;40551;50.478;19.378;2023-02-10T07:51:52;99572.77;;;-2.50;66.92
53526;BME280;40551;50.478;19.378;2023-02-10T07:54:24;99573.37;;;-2.40;66.50
53526;BME280;40551;50.478;19.378;2023-02-10T07:56:56;99568.36;;;-2.30;66.68
53526;BME280;40551;50.478;19.378;2023-02-10T07:59:28;99568.08;;;-2.18;66.53
53526;BME280;40551;50.478;19.378;2023-02-10T08:01:58;99572.23;;;-2.06;66.16
53526;BME280;40551;50.478;19.378;2023-02-10T08:04:32;99578.98;;;-2.01;66.09
53526;BME280;40551;50.478;19.378;2023-02-10T08:07:04;99588.05;;;-1.89;66.12
53526;BME280;40551;50.478;19.378;2023-02-10T08:09:36;99590.31;;;-1.79;65.78
53526;BME280;40551;50.478;19.378;2023-02-10T08:12:08;99596.34;;;-1.67;65.93
53526;BME280;40551;50.478;19.378;2023-02-10T08:14:38;99602.45;;;-1.52;65.96
53526;BME280;40551;50.478;19.378;2023-02-10T08:17:10;99599.31;;;-1.45;65.63
53526;BME280;40551;50.478;19.378;2023-02-10T08:19:40;99602.79;;;-1.36;65.43
53526;BME280;40551;50.478;19.378;2023-02-10T08:22:11;99603.64;;;-1.35;64.91
53526;BME280;40551;50.478;19.378;2023-02-10T08:24:42;99609.04;;;-1.31;64.84
53526;BME280;40551;50.478;19.378;2023-02-10T08:27:13;99605.99;;;-1.33;64.90
53526;BME280;40551;50.478;19.378;2023-02-10T08:29:44;99603.55;;;-1.29;64.51
53526;BME280;40551;50.478;19.378;2023-02-10T08:32:16;99599.16;;;-1.31;64.67
53526;BME280;40551;50.478;19.378;2023-02-10T08:34:51;99599.08;;;-1.25;64.65
53526;BME280;40551;50.478;19.378;2023-02-10T08:37:23;99602.09;;;-1.20;64.42
53526;BME280;40551;50.478;19.378;2023-02-10T08:39:53;99605.29;;;-1.17;64.09
53526;BME280;40551;50.478;19.378;2023-02-10T08:42:25;99611.27;;;-1.17;64.33
53526;BME280;40551;50.478;19.378;2023-02-10T08:44:55;99606.37;;;-1.08;64.34
53526;BME280;40551;50.478;19.378;2023-02-10T08:47:27;99600.27;;;-0.97;64.59
53526;BME280;40551;50.478;19.378;2023-02-10T08:49:58;99595.73;;;-0.77;64.56
53526;BME280;40551;50.478;19.378;2023-02-10T08:52:29;99594.77;;;-0.57;64.00
53526;BME280;40551;50.478;19.378;2023-02-10T08:55:01;99593.30;;;-0.50;63.62
53526;BME280;40551;50.478;19.378;2023-02-10T08:57:34;99598.17;;;-0.35;63.63
53526;BME280;40551;50.478;19.378;2023-02-10T09:00:10;99599.92;;;-0.17;63.86
53526;BME280;40551;50.478;19.378;2023-02-10T09:02:42;99600.55;;;0.07;63.84
53526;BME280;40551;50.478;19.378;2023-02-10T09:05:13;99602.90;;;0.29;63.22
53526;BME280;40551;50.478;19.378;2023-02-10T09:07:46;99600.62;;;0.41;62.54
53526;BME280;40551;50.478;19.378;2023-02-10T09:10:18;99596.46;;;0.53;62.82
53526;BME280;40551;50.478;19.378;2023-02-10T09:12:49;99600.68;;;0.65;62.46
53526;BME280;40551;50.478;19.378;2023-02-10T09:15:19;99602.38;;;0.74;62.44
53526;BME280;40551;50.478;19.378;2023-02-10T09:17:51;99600.69;;;0.73;61.57
53526;BME280;40551;50.478;19.378;2023-02-10T09:20:21;99604.89;;;0.76;61.62
53526;BME280;40551;50.478;19.378;2023-02-10T09:22:53;99601.77;;;0.78;61.47
53526;BME280;40551;50.478;19.378;2023-02-10T09:25:23;99602.69;;;0.84;61.16
53526;BME280;40551;50.478;19.378;2023-02-10T09:27:55;99600.44;;;0.85;61.31
53526;BME280;40551;50.478;19.378;2023-02-10T09:30:28;99599.06;;;0.94;61.09
53526;BME280;40551;50.478;19.378;2023-02-10T09:32:59;99596.27;;;0.97;60.75
53526;BME280;40551;50.478;19.378;2023-02-10T09:35:30;99596.88;;;1.00;60.95
53526;BME280;40551;50.478;19.378;2023-02-10T09:38:01;99598.17;;;1.04;60.96
53526;BME280;40551;50.478;19.378;2023-02-10T09:40:32;99590.61;;;1.14;60.93
53526;BME280;40551;50.478;19.378;2023-02-10T09:43:11;99593.38;;;1.20;60.82
53526;BME280;40551;50.478;19.378;2023-02-10T09:45:48;99592.40;;;1.33;60.47
53526;BME280;40551;50.478;19.378;2023-02-10T09:48:29;99592.25;;;1.47;60.73
53526;BME280;40551;50.478;19.378;2023-02-10T09:51:08;99595.98;;;1.56;60.08
53526;BME280;40551;50.478;19.378;2023-02-10T09:53:45;99610.77;;;1.60;59.78
53526;BME280;40551;50.478;19.378;2023-02-10T09:56:16;99610.44;;;1.60;59.41
53526;BME280;40551;50.478;19.378;2023-02-10T09:58:50;99603.33;;;1.49;59.24
53526;BME280;40551;50.478;19.378;2023-02-10T10:01:25;99603.94;;;1.45;59.17
53526;BME280;40551;50.478;19.378;2023-02-10T10:04:01;99604.41;;;1.39;59.14
53526;BME280;40551;50.478;19.378;2023-02-10T10:06:38;99605.48;;;1.37;59.19
53526;BME280;40551;50.478;19.378;2023-02-10T10:09:21;99604.40;;;1.40;59.44
53526;BME280;40551;50.478;19.378;2023-02-10T10:11:55;99604.56;;;1.40;59.41
53526;BME280;40551;50.478;19.378;2023-02-10T10:14:29;99603.64;;;1.43;59.69
53526;BME280;40551;50.478;19.378;2023-02-10T10:17:19;99599.50;;;1.44;59.17
53526;BME280;40551;50.478;19.378;2023-02-10T10:20:11;99592.56;;;1.49;59.58
53526;BME280;40551;50.478;19.378;2023-02-10T10:22:55;99595.61;;;1.57;59.66
53526;BME280;40551;50.478;19.378;2023-02-10T10:25:48;99593.05;;;1.65;59.38
53526;BME280;40551;50.478;19.378;2023-02-10T10:28:30;99597.73;;;1.69;59.23
53526;BME280;40551;50.478;19.378;2023-02-10T10:31:10;99604.08;;;1.68;58.95
53526;BME280;40551;50.478;19.378;2023-02-10T10:33:47;99602.81;;;1.71;59.49
53526;BME280;40551;50.478;19.378;2023-02-10T10:36:22;99600.91;;;1.80;59.45
53526;BME280;40551;50.478;19.378;2023-02-10T10:38:57;99593.05;;;1.85;59.17
53526;BME280;40551;50.478;19.378;2023-02-10T10:41:32;99592.91;;;1.91;59.30
53526;BME280;40551;50.478;19.378;2023-02-10T10:44:07;99588.52;;;2.02;59.34
53526;BME280;40551;50.478;19.378;2023-02-10T10:46:44;99586.65;;;2.16;59.19
53526;BME280;40551;50.478;19.378;2023-02-10T10:49:18;99588.52;;;2.23;58.98
53526;BME280;40551;50.478;19.378;2023-02-10T10:51:50;99591.56;;;2.31;59.04
53526;BME280;40551;50.478;19.378;2023-02-10T10:54:21;99593.70;;;2.40;59.05
53526;BME280;40551;50.478;19.378;2023-02-10T10:56:56;99591.75;;;2.42;58.72
53526;BME280;40551;50.478;19.378;2023-02-10T10:59:31;99587.15;;;2.49;58.32
53526;BME280;40551;50.478;19.378;2023-02-10T11:02:14;99598.92;;;2.56;58.55
53526;BME280;40551;50.478;19.378;2023-02-10T11:04:46;99597.65;;;2.59;57.90
53526;BME280;40551;50.478;19.378;2023-02-10T11:07:32;99594.76;;;2.64;58.32
53526;BME280;40551;50.478;19.378;2023-02-10T11:10:15;99588.02;;;2.67;57.69
53526;BME280;40551;50.478;19.378;2023-02-10T11:12:51;99582.61;;;2.64;57.59
53526;BME280;40551;50.478;19.378;2023-02-10T11:15:34;99571.70;;;2.68;57.68
53526;BME280;40551;50.478;19.378;2023-02-10T11:18:16;99565.64;;;2.70;57.35
53526;BME280;40551;50.478;19.378;2023-02-10T11:20:56;99562.56;;;2.71;57.30
53526;BME280;40551;50.478;19.378;2023-02-10T11:23:29;99564.73;;;2.72;57.60
53526;BME280;40551;50.478;19.378;2023-02-10T11:26:03;99566.19;;;2.75;57.55
53526;BME280;40551;50.478;19.378;2023-02-10T11:28:36;99567.89;;;2.75;57.17
53526;BME280;40551;50.478;19.378;2023-02-10T11:31:15;99564.74;;;2.72;56.90
53526;BME280;40551;50.478;19.378;2023-02-10T11:33:56;99561.55;;;2.63;57.04
53526;BME280;40551;50.478;19.378;2023-02-10T11:36:36;99561.00;;;2.58;56.89
53526;BME280;40551;50.478;19.378;2023-02-10T11:39:18;99558.48;;;2.51;56.29
53526;BME280;40551;50.478;19.378;2023-02-10T11:41:51;99560.67;;;2.40;56.22
53526;BME280;40551;50.478;19.378;2023-02-10T11:44:28;99566.96;;;2.35;56.88
53526;BME280;40551;50.478;19.378;2023-02-10T11:47:02;99571.17;;;2.31;57.23
53526;BME280;40551;50.478;19.378;2023-02-10T11:49:36;99564.11;;;2.26;57.13
53526;BME280;40551;50.478;19.378;2023-02-10T11:52:08;99563.24;;;2.20;57.29
53526;BME280;40551;50.478;19.378;2023-02-10T11:54:41;99562.33;;;2.16;57.26
53526;BME280;40551;50.478;19.378;2023-02-10T11:57:27;99563.23;;;2.14;57.49
53526;BME280;40551;50.478;19.378;2023-02-10T12:00:27;99563.21;;;2.08;57.45
53526;BME280;40551;50.478;19.378;2023-02-10T12:03:22;99563.55;;;2.09;57.88
53526;BME280;40551;50.478;19.378;2023-02-10T12:06:05;99568.19;;;2.08;57.91
53526;BME280;40551;50.478;19.378;2023-02-10T12:08:50;99568.63;;;2.05;57.92
53526;BME280;40551;50.478;19.378;2023-02-10T12:11:31;99566.39;;;2.05;58.21
53526;BME280;40551;50.478;19.378;2023-02-10T12:14:12;99569.68;;;2.04;57.97
53526;BME280;40551;50.478;19.378;2023-02-10T12:16:50;99567.29;;;2.03;58.28
53526;BME280;40551;50.478;19.378;2023-02-10T12:19:27;99571.80;;;2.07;58.28
53526;BME280;40551;50.478;19.378;2023-02-10T12:22:07;99579.86;;;2.07;57.95
53526;BME280;40551;50.478;19.378;2023-02-10T12:25:04;99578.89;;;2.05;58.14
53526;BME280;40551;50.478;19.378;2023-02-10T12:27:49;99571.82;;;2.07;58.66
53526;BME280;40551;50.478;19.378;2023-02-10T12:30:33;99574.52;;;2.08;58.48
53526;BME280;40551;50.478;19.378;2023-02-10T12:33:21;99586.23;;;2.12;58.67
53526;BME280;40551;50.478;19.378;2023-02-10T12:36:07;99583.65;;;2.12;58.83
53526;BME280;40551;50.478;19.378;2023-02-10T12:38:53;99579.16;;;2.14;59.04
53526;BME280;40551;50.478;19.378;2023-02-10T12:41:35;99585.00;;;2.13;58.71
53526;BME280;40551;50.478;19.378;2023-02-10T12:44:20;99588.66;;;2.17;58.97
53526;BME280;40551;50.478;19.378;2023-02-10T12:47:03;99587.98;;;2.17;59.18
53526;BME280;40551;50.478;19.378;2023-02-10T12:49:49;99591.27;;;2.15;58.68
53526;BME280;40551;50.478;19.378;2023-02-10T12:52:28;99594.39;;;2.14;59.22
53526;BME280;40551;50.478;19.378;2023-02-10T12:55:04;99590.61;;;2.14;58.94
53526;BME280;40551;50.478;19.378;2023-02-10T12:57:46;99579.83;;;2.15;59.02
53526;BME280;40551;50.478;19.378;2023-02-10T13:00:23;99578.80;;;2.15;59.44
53526;BME280;40551;50.478;19.378;2023-02-10T13:02:59;99582.39;;;2.15;59.46
53526;BME280;40551;50.478;19.378;2023-02-10T13:05:36;99579.27;;;2.17;59.62
53526;BME280;40551;50.478;19.378;2023-02-10T13:08:13;99585.48;;;2.20;59.58
53526;BME280;40551;50.478;19.378;2023-02-10T13:10:49;99577.08;;;2.28;59.99
53526;BME280;40551;50.478;19.378;2023-02-10T13:13:25;99569.90;;;2.34;59.76
53526;BME280;40551;50.478;19.378;2023-02-10T13:16:02;99568.27;;;2.37;59.93
53526;BME280;40551;50.478;19.378;2023-02-10T13:18:39;99572.30;;;2.40;59.82
53526;BME280;40551;50.478;19.378;2023-02-10T13:21:17;99581.83;;;2.42;60.14
53526;BME280;40551;50.478;19.378;2023-02-10T13:23:56;99586.60;;;2.43;60.24
53526;BME280;40551;50.478;19.378;2023-02-10T13:29:45;99587.73;;;2.27;59.93
53526;BME280;40551;50.478;19.378;2023-02-10T13:32:47;99587.94;;;2.19;60.41